• Join FlightAware (Why Join?)
  • Login
  • US Flag 
01:16AM EDT


 

Airport Tracker/Info


-or-


 

Live Flight TrackerFlight Track Log ✈ PDT4226 ✈ 17-Oct-2013 ✈ KPHL - KBGM

Flight Track Log - Related Links

Times and Time Zones

All times are in EDT time to prevent confusion due to time zone crossing. See the PDT4226 flight status page for this flight to view local times or setup timezone preferences in your user account.

Time Position Orientation Groundspeed Altitude Reporting Facility
EDT Latitude Longitude Course Direction KTS MPH feet Rate Location/Type
01:03PM 39.8833 -75.2000 37° Northeast 113 130 600  Level Philadelphia TRACON
01:04PM 39.9167 -75.1667 37° Northeast 138 159 2,400 1,500 Climbing Philadelphia TRACON
01:05PM 39.9333 -75.1500 37° Northeast 138 159 3,700 1,500 Climbing Philadelphia TRACON
01:06PM 39.9833 -75.1500 360° North 134 154 5,300 1,440 Climbing Philadelphia TRACON
01:08PM 40.0167 -75.1667 339° North 146 168 6,900 1,260 Climbing Philadelphia TRACON
01:08PM 40.0667 -75.1667 360° North 147 169 8,000 1,080 Climbing Philadelphia TRACON
01:09PM 40.0833 -75.2000 303° West 160 184 8,900 420 Climbing Philadelphia TRACON
01:10PM 40.1167 -75.2667 303° West 198 228 8,900 180 Level Philadelphia TRACON
01:12PM 40.1431 -75.3572 291° West 243 280 9,400 360 Climbing New York Center
01:13PM 40.1714 -75.4322 296° West 221 254 9,900 300 Climbing New York Center
01:14PM 40.1961 -75.4911 299° West 213 245 10,100  Climbing New York Center
01:15PM 40.2419 -75.5458 318° Northwest 213 245 10,000 -60 Descending New York Center
01:16PM 40.3003 -75.5989 325° Northwest 232 267 10,000  Level New York Center
01:17PM 40.3547 -75.6461 327° Northwest 238 274 10,000  Level New York Center
01:18PM 40.4089 -75.6964 325° Northwest 238 274 10,000  Level New York Center
01:19PM 40.4611 -75.7383 329° Northwest 238 274 10,000  Level New York Center
01:20PM 40.5153 -75.7914 323° Northwest 238 274 10,000  Level New York Center
01:21PM 40.5756 -75.8450 326° Northwest 238 274 10,000  Level New York Center
01:22PM 40.6442 -75.8500 357° North 231 266 10,000  Level New York Center
01:23PM 40.7144 -75.8581 355° North 246 283 10,000  Level New York Center
01:24PM 40.7789 -75.8656 355° North 251 289 10,000  Level New York Center
01:25PM 40.8497 -75.8625 North 251 289 10,000  Level New York Center
01:26PM 40.9267 -75.8683 357° North 251 289 10,000  Level New York Center
01:27PM 40.9992 -75.8794 353° North 251 289 10,000  Level New York Center
01:28PM 41.0614 -75.8867 355° North 251 289 10,000  Level New York Center
01:29PM 41.1403 -75.8928 357° North 251 289 10,000  Level New York Center
01:30PM 41.2086 -75.9006 355° North 251 289 10,000  Level New York Center
01:31PM 41.2706 -75.9108 353° North 251 289 10,000  Level New York Center
01:32PM 41.3433 -75.9136 358° North 251 289 10,000  Level New York Center
01:33PM 41.4117 -75.9244 353° North 251 289 10,000 -240 Level New York Center
01:34PM 41.4825 -75.9269 358° North 251 289 9,600 -840 Descending New York Center
01:35PM 41.5675 -75.9308 358° North 264 304 8,400 -840 Descending New York Center
01:36PM 41.6400 -75.9447 352° North 272 313 8,000 -240 Descending New York Center
01:37PM 41.7106 -75.9475 358° North 266 306 8,000 -300 Level New York Center
01:38PM 41.7772 -75.9442 North 255 293 7,500 -780 Descending New York Center
01:39PM 41.8569 -75.9311 North 260 299 6,500 -1,080 Descending New York Center
01:40PM 41.9281 -75.9281 North 254 292 5,400 -1,140 Descending New York Center
01:41PM 41.9925 -75.9275 360° North 241 277 4,300 -780 Descending New York Center
01:42PM 42.0422 -75.9342 354° North 236 272 3,900 2,820 Descending New York Center
01:43PM 42.1108 -75.9342 360° North 236 272 10,000 3,000 Climbing New York Center
01:44PM 42.1731 -75.9389 357° North 236 272 10,000  Level New York Center
01:45PM 42.2353 -75.9439 357° North 236 272 10,000  Level New York Center